sensor_id;sensor_type;location;lat;lon;timestamp;pressure;altitude;pressure_sealevel;temperature;humidity
78407;BME280;67692;51.074;-1.790;2023-04-24T00:00:01;100165.63;;;8.09;79.10
78407;BME280;67692;51.074;-1.790;2023-04-24T00:02:30;100166.03;;;8.02;78.91
78407;BME280;67692;51.074;-1.790;2023-04-24T00:04:58;100164.88;;;7.94;79.47
78407;BME280;67692;51.074;-1.790;2023-04-24T00:07:29;100159.44;;;7.98;79.89
78407;BME280;67692;51.074;-1.790;2023-04-24T00:09:58;100149.31;;;7.95;79.42
78407;BME280;67692;51.074;-1.790;2023-04-24T00:12:26;100148.31;;;7.98;78.67
78407;BME280;67692;51.074;-1.790;2023-04-24T00:14:53;100153.25;;;8.01;79.58
78407;BME280;67692;51.074;-1.790;2023-04-24T00:17:20;100166.16;;;8.01;79.01
78407;BME280;67692;51.074;-1.790;2023-04-24T00:19:47;100165.00;;;7.92;79.48
78407;BME280;67692;51.074;-1.790;2023-04-24T00:22:14;100163.34;;;7.91;79.46
78407;BME280;67692;51.074;-1.790;2023-04-24T00:24:42;100168.69;;;7.88;78.77
78407;BME280;67692;51.074;-1.790;2023-04-24T00:27:08;100175.72;;;7.86;79.21
78407;BME280;67692;51.074;-1.790;2023-04-24T00:29:35;100179.59;;;7.79;79.28
78407;BME280;67692;51.074;-1.790;2023-04-24T00:32:02;100186.41;;;7.80;79.90
78407;BME280;67692;51.074;-1.790;2023-04-24T00:34:28;100177.44;;;7.73;78.91
78407;BME280;67692;51.074;-1.790;2023-04-24T00:36:55;100181.66;;;7.74;79.11
78407;BME280;67692;51.074;-1.790;2023-04-24T00:39:22;100187.66;;;7.74;78.74
78407;BME280;67692;51.074;-1.790;2023-04-24T00:41:50;100190.94;;;7.76;79.46
78407;BME280;67692;51.074;-1.790;2023-04-24T00:44:17;100201.56;;;7.72;78.60
78407;BME280;67692;51.074;-1.790;2023-04-24T00:46:45;100190.34;;;7.73;78.39
78407;BME280;67692;51.074;-1.790;2023-04-24T00:49:13;100197.25;;;7.72;78.51
78407;BME280;67692;51.074;-1.790;2023-04-24T00:51:40;100193.72;;;7.73;78.34
78407;BME280;67692;51.074;-1.790;2023-04-24T00:54:10;100202.09;;;7.77;78.78
78407;BME280;67692;51.074;-1.790;2023-04-24T00:56:37;100203.13;;;7.74;77.75
78407;BME280;67692;51.074;-1.790;2023-04-24T00:59:05;100208.38;;;7.73;78.80
78407;BME280;67692;51.074;-1.790;2023-04-24T01:01:33;100215.59;;;7.68;78.63
78407;BME280;67692;51.074;-1.790;2023-04-24T01:04:00;100201.94;;;7.66;79.54
78407;BME280;67692;51.074;-1.790;2023-04-24T01:06:28;100205.34;;;7.66;79.12
78407;BME280;67692;51.074;-1.790;2023-04-24T01:08:57;100212.19;;;7.67;79.19
78407;BME280;67692;51.074;-1.790;2023-04-24T01:11:24;100210.69;;;7.63;79.01
78407;BME280;67692;51.074;-1.790;2023-04-24T01:13:51;100209.25;;;7.59;78.61
78407;BME280;67692;51.074;-1.790;2023-04-24T01:16:19;100212.47;;;7.63;78.62
78407;BME280;67692;51.074;-1.790;2023-04-24T01:18:47;100211.97;;;7.70;78.42
78407;BME280;67692;51.074;-1.790;2023-04-24T01:21:15;100213.06;;;7.66;77.93
78407;BME280;67692;51.074;-1.790;2023-04-24T01:23:43;100213.00;;;7.68;79.02
78407;BME280;67692;51.074;-1.790;2023-04-24T01:26:10;100217.41;;;7.66;78.17
78407;BME280;67692;51.074;-1.790;2023-04-24T01:28:37;100211.63;;;7.62;78.53
78407;BME280;67692;51.074;-1.790;2023-04-24T01:31:04;100207.00;;;7.55;78.25
78407;BME280;67692;51.074;-1.790;2023-04-24T01:33:31;100215.13;;;7.61;78.36
78407;BME280;67692;51.074;-1.790;2023-04-24T01:35:58;100218.53;;;7.62;78.07
78407;BME280;67692;51.074;-1.790;2023-04-24T01:38:24;100215.03;;;7.63;78.21
78407;BME280;67692;51.074;-1.790;2023-04-24T01:40:53;100217.59;;;7.63;78.42
78407;BME280;67692;51.074;-1.790;2023-04-24T01:43:20;100214.41;;;7.59;78.82
78407;BME280;67692;51.074;-1.790;2023-04-24T01:45:47;100215.44;;;7.57;78.17
78407;BME280;67692;51.074;-1.790;2023-04-24T01:48:13;100223.28;;;7.55;78.89
78407;BME280;67692;51.074;-1.790;2023-04-24T01:50:40;100216.00;;;7.47;78.33
78407;BME280;67692;51.074;-1.790;2023-04-24T01:53:07;100216.00;;;7.47;78.86
78407;BME280;67692;51.074;-1.790;2023-04-24T01:55:33;100220.25;;;7.49;78.26
78407;BME280;67692;51.074;-1.790;2023-04-24T01:58:01;100220.13;;;7.50;79.01
78407;BME280;67692;51.074;-1.790;2023-04-24T02:00:28;100224.66;;;7.46;79.09
78407;BME280;67692;51.074;-1.790;2023-04-24T02:02:55;100224.16;;;7.41;78.70
78407;BME280;67692;51.074;-1.790;2023-04-24T02:05:22;100235.91;;;7.45;78.56
78407;BME280;67692;51.074;-1.790;2023-04-24T02:07:48;100233.25;;;7.33;78.45
78407;BME280;67692;51.074;-1.790;2023-04-24T02:10:15;100235.75;;;7.34;78.73
78407;BME280;67692;51.074;-1.790;2023-04-24T02:12:41;100227.34;;;7.45;79.00
78407;BME280;67692;51.074;-1.790;2023-04-24T02:15:10;100232.41;;;7.46;78.28
78407;BME280;67692;51.074;-1.790;2023-04-24T02:17:37;100233.13;;;7.49;78.88
78407;BME280;67692;51.074;-1.790;2023-04-24T02:20:04;100239.88;;;7.37;79.95
78407;BME280;67692;51.074;-1.790;2023-04-24T02:22:31;100245.69;;;7.40;79.65
78407;BME280;67692;51.074;-1.790;2023-04-24T02:24:57;100247.13;;;7.44;78.91
78407;BME280;67692;51.074;-1.790;2023-04-24T02:27:25;100252.91;;;7.48;79.10
78407;BME280;67692;51.074;-1.790;2023-04-24T02:29:51;100259.59;;;7.51;78.85
78407;BME280;67692;51.074;-1.790;2023-04-24T02:32:19;100252.09;;;7.47;79.28
78407;BME280;67692;51.074;-1.790;2023-04-24T02:34:46;100256.09;;;7.52;78.73
78407;BME280;67692;51.074;-1.790;2023-04-24T02:37:12;100259.59;;;7.51;79.14
78407;BME280;67692;51.074;-1.790;2023-04-24T02:39:39;100257.84;;;7.51;79.26
78407;BME280;67692;51.074;-1.790;2023-04-24T02:42:05;100264.13;;;7.47;79.51
78407;BME280;67692;51.074;-1.790;2023-04-24T02:44:33;100268.97;;;7.52;78.90
78407;BME280;67692;51.074;-1.790;2023-04-24T02:47:00;100269.59;;;7.42;79.67
78407;BME280;67692;51.074;-1.790;2023-04-24T02:49:28;100271.69;;;7.36;79.71
78407;BME280;67692;51.074;-1.790;2023-04-24T02:51:54;100273.44;;;7.35;79.58
78407;BME280;67692;51.074;-1.790;2023-04-24T02:54:21;100284.97;;;7.30;79.76
78407;BME280;67692;51.074;-1.790;2023-04-24T02:56:48;100277.34;;;7.28;78.95
78407;BME280;67692;51.074;-1.790;2023-04-24T02:59:14;100291.13;;;7.27;79.72
78407;BME280;67692;51.074;-1.790;2023-04-24T03:01:41;100295.38;;;7.28;79.36
78407;BME280;67692;51.074;-1.790;2023-04-24T03:04:08;100303.28;;;7.25;79.48
78407;BME280;67692;51.074;-1.790;2023-04-24T03:06:36;100299.59;;;7.29;79.75
78407;BME280;67692;51.074;-1.790;2023-04-24T03:09:04;100290.22;;;7.28;79.54
78407;BME280;67692;51.074;-1.790;2023-04-24T03:11:30;100294.63;;;7.26;79.54
78407;BME280;67692;51.074;-1.790;2023-04-24T03:13:57;100297.22;;;7.26;79.28
78407;BME280;67692;51.074;-1.790;2023-04-24T03:16:23;100302.16;;;7.29;79.11
78407;BME280;67692;51.074;-1.790;2023-04-24T03:18:50;100306.13;;;7.21;79.98
78407;BME280;67692;51.074;-1.790;2023-04-24T03:21:17;100304.84;;;7.13;79.83
78407;BME280;67692;51.074;-1.790;2023-04-24T03:23:45;100305.50;;;7.17;79.39
78407;BME280;67692;51.074;-1.790;2023-04-24T03:26:11;100298.69;;;7.16;79.55
78407;BME280;67692;51.074;-1.790;2023-04-24T03:28:38;100290.22;;;7.14;79.51
78407;BME280;67692;51.074;-1.790;2023-04-24T03:31:05;100292.63;;;7.03;80.38
78407;BME280;67692;51.074;-1.790;2023-04-24T03:33:31;100290.34;;;6.98;80.51
78407;BME280;67692;51.074;-1.790;2023-04-24T03:35:58;100297.13;;;6.99;80.50
78407;BME280;67692;51.074;-1.790;2023-04-24T03:38:25;100300.97;;;7.06;80.56
78407;BME280;67692;51.074;-1.790;2023-04-24T03:40:53;100304.78;;;7.01;79.80
78407;BME280;67692;51.074;-1.790;2023-04-24T03:43:19;100306.31;;;7.03;80.36
78407;BME280;67692;51.074;-1.790;2023-04-24T03:45:46;100310.56;;;7.04;81.08
78407;BME280;67692;51.074;-1.790;2023-04-24T03:48:13;100307.72;;;7.09;80.45
78407;BME280;67692;51.074;-1.790;2023-04-24T03:50:39;100318.03;;;7.09;80.39
78407;BME280;67692;51.074;-1.790;2023-04-24T03:53:06;100313.94;;;7.05;79.73
78407;BME280;67692;51.074;-1.790;2023-04-24T03:55:33;100305.69;;;7.00;79.48
78407;BME280;67692;51.074;-1.790;2023-04-24T03:58:01;100300.53;;;7.00;80.13
78407;BME280;67692;51.074;-1.790;2023-04-24T04:00:27;100291.06;;;7.00;80.40
78407;BME280;67692;51.074;-1.790;2023-04-24T04:02:58;100294.00;;;6.94;80.23
78407;BME280;67692;51.074;-1.790;2023-04-24T04:05:25;100295.50;;;6.98;80.58
78407;BME280;67692;51.074;-1.790;2023-04-24T04:07:51;100290.25;;;7.00;79.93
78407;BME280;67692;51.074;-1.790;2023-04-24T04:10:18;100291.16;;;6.99;80.25
78407;BME280;67692;51.074;-1.790;2023-04-24T04:12:44;100287.88;;;6.97;79.89
78407;BME280;67692;51.074;-1.790;2023-04-24T04:15:12;100294.66;;;6.98;79.71
78407;BME280;67692;51.074;-1.790;2023-04-24T04:17:39;100298.97;;;6.97;79.21
78407;BME280;67692;51.074;-1.790;2023-04-24T04:20:06;100296.84;;;6.90;79.29
78407;BME280;67692;51.074;-1.790;2023-04-24T04:22:35;100299.06;;;6.81;79.45
78407;BME280;67692;51.074;-1.790;2023-04-24T04:25:02;100305.97;;;6.81;79.99
78407;BME280;67692;51.074;-1.790;2023-04-24T04:27:29;100306.97;;;6.78;80.35
78407;BME280;67692;51.074;-1.790;2023-04-24T04:29:57;100303.66;;;6.76;79.44
78407;BME280;67692;51.074;-1.790;2023-04-24T04:32:25;100306.81;;;6.81;79.40
78407;BME280;67692;51.074;-1.790;2023-04-24T04:34:52;100309.06;;;6.72;79.72
78407;BME280;67692;51.074;-1.790;2023-04-24T04:37:19;100310.44;;;6.77;79.95
78407;BME280;67692;51.074;-1.790;2023-04-24T04:39:46;100311.38;;;6.76;79.47
78407;BME280;67692;51.074;-1.790;2023-04-24T04:42:12;100309.25;;;6.69;79.59
78407;BME280;67692;51.074;-1.790;2023-04-24T04:44:40;100317.06;;;6.67;79.53
78407;BME280;67692;51.074;-1.790;2023-04-24T04:47:08;100320.56;;;6.66;79.90
78407;BME280;67692;51.074;-1.790;2023-04-24T04:49:37;100333.50;;;6.65;80.17
78407;BME280;67692;51.074;-1.790;2023-04-24T04:52:04;100327.72;;;6.61;79.82
78407;BME280;67692;51.074;-1.790;2023-04-24T04:54:30;100333.78;;;6.60;80.11
78407;BME280;67692;51.074;-1.790;2023-04-24T04:56:57;100330.28;;;6.61;79.84
78407;BME280;67692;51.074;-1.790;2023-04-24T04:59:24;100329.00;;;6.54;79.79
78407;BME280;67692;51.074;-1.790;2023-04-24T05:01:50;100332.19;;;6.43;79.62
78407;BME280;67692;51.074;-1.790;2023-04-24T05:04:17;100325.47;;;6.41;79.63
78407;BME280;67692;51.074;-1.790;2023-04-24T05:06:45;100324.56;;;6.42;79.80
78407;BME280;67692;51.074;-1.790;2023-04-24T05:09:12;100316.66;;;6.45;79.88
78407;BME280;67692;51.074;-1.790;2023-04-24T05:11:39;100320.06;;;6.45;80.05
78407;BME280;67692;51.074;-1.790;2023-04-24T05:14:05;100316.66;;;6.45;80.18
78407;BME280;67692;51.074;-1.790;2023-04-24T05:16:32;100340.94;;;6.55;80.60
78407;BME280;67692;51.074;-1.790;2023-04-24T05:18:59;100343.97;;;6.62;80.00
78407;BME280;67692;51.074;-1.790;2023-04-24T05:21:25;100349.38;;;6.57;80.27
78407;BME280;67692;51.074;-1.790;2023-04-24T05:23:53;100354.13;;;6.49;80.42
78407;BME280;67692;51.074;-1.790;2023-04-24T05:26:20;100352.56;;;6.46;80.17
78407;BME280;67692;51.074;-1.790;2023-04-24T05:28:48;100357.47;;;6.51;79.77
78407;BME280;67692;51.074;-1.790;2023-04-24T05:31:15;100363.97;;;6.42;79.63
78407;BME280;67692;51.074;-1.790;2023-04-24T05:33:43;100360.56;;;6.42;80.35
78407;BME280;67692;51.074;-1.790;2023-04-24T05:36:09;100368.75;;;6.48;79.71
78407;BME280;67692;51.074;-1.790;2023-04-24T05:38:36;100374.56;;;6.52;80.24
78407;BME280;67692;51.074;-1.790;2023-04-24T05:41:04;100373.56;;;6.54;79.93
78407;BME280;67692;51.074;-1.790;2023-04-24T05:43:31;100378.59;;;6.56;79.96
78407;BME280;67692;51.074;-1.790;2023-04-24T05:45:58;100381.00;;;6.59;81.14
78407;BME280;67692;51.074;-1.790;2023-04-24T05:48:24;100381.81;;;6.60;80.39
78407;BME280;67692;51.074;-1.790;2023-04-24T05:50:51;100379.06;;;6.63;80.71
78407;BME280;67692;51.074;-1.790;2023-04-24T05:53:18;100389.75;;;6.71;79.94
78407;BME280;67692;51.074;-1.790;2023-04-24T05:55:45;100388.66;;;6.75;80.48
78407;BME280;67692;51.074;-1.790;2023-04-24T05:58:13;100389.25;;;6.80;80.59
78407;BME280;67692;51.074;-1.790;2023-04-24T06:00:39;100393.97;;;6.72;80.35
78407;BME280;67692;51.074;-1.790;2023-04-24T06:03:08;100395.38;;;6.77;80.83
78407;BME280;67692;51.074;-1.790;2023-04-24T06:05:34;100385.06;;;6.77;80.73
78407;BME280;67692;51.074;-1.790;2023-04-24T06:08:01;100389.97;;;6.82;80.90
78407;BME280;67692;51.074;-1.790;2023-04-24T06:10:27;100392.69;;;6.79;78.94
78407;BME280;67692;51.074;-1.790;2023-04-24T06:12:54;100401.44;;;6.76;79.63
78407;BME280;67692;51.074;-1.790;2023-04-24T06:15:27;100397.03;;;6.78;79.31
78407;BME280;67692;51.074;-1.790;2023-04-24T06:17:55;100404.69;;;6.80;79.14
78407;BME280;67692;51.074;-1.790;2023-04-24T06:20:22;100410.69;;;6.95;79.59
78407;BME280;67692;51.074;-1.790;2023-04-24T06:22:49;100404.44;;;6.99;80.68
78407;BME280;67692;51.074;-1.790;2023-04-24T06:25:16;100402.78;;;6.98;81.23
78407;BME280;67692;51.074;-1.790;2023-04-24T06:27:42;100409.19;;;7.05;80.65
78407;BME280;67692;51.074;-1.790;2023-04-24T06:30:10;100400.13;;;7.13;79.84
78407;BME280;67692;51.074;-1.790;2023-04-24T06:32:38;100404.06;;;7.19;79.81
78407;BME280;67692;51.074;-1.790;2023-04-24T06:35:06;100402.94;;;7.23;80.14
78407;BME280;67692;51.074;-1.790;2023-04-24T06:37:33;100396.16;;;7.22;79.99
78407;BME280;67692;51.074;-1.790;2023-04-24T06:40:00;100411.34;;;7.27;80.20
78407;BME280;67692;51.074;-1.790;2023-04-24T06:42:26;100404.44;;;7.27;80.01
78407;BME280;67692;51.074;-1.790;2023-04-24T06:44:53;100408.59;;;7.30;80.09
78407;BME280;67692;51.074;-1.790;2023-04-24T06:47:20;100411.88;;;7.32;80.46
78407;BME280;67692;51.074;-1.790;2023-04-24T06:49:47;100410.88;;;7.34;79.88
78407;BME280;67692;51.074;-1.790;2023-04-24T06:52:16;100409.03;;;7.36;80.49
78407;BME280;67692;51.074;-1.790;2023-04-24T06:54:43;100412.09;;;7.43;80.08
78407;BME280;67692;51.074;-1.790;2023-04-24T06:57:09;100409.50;;;7.43;79.83
78407;BME280;67692;51.074;-1.790;2023-04-24T06:59:36;100413.63;;;7.45;80.64
78407;BME280;67692;51.074;-1.790;2023-04-24T07:02:03;100413.34;;;7.50;79.95
78407;BME280;67692;51.074;-1.790;2023-04-24T07:04:30;100419.91;;;7.56;80.39
78407;BME280;67692;51.074;-1.790;2023-04-24T07:06:58;100423.94;;;7.60;80.12
78407;BME280;67692;51.074;-1.790;2023-04-24T07:09:25;100420.44;;;7.61;79.86
78407;BME280;67692;51.074;-1.790;2023-04-24T07:11:53;100420.44;;;7.61;80.27
78407;BME280;67692;51.074;-1.790;2023-04-24T07:14:19;100410.97;;;7.61;79.23
78407;BME280;67692;51.074;-1.790;2023-04-24T07:16:46;100409.00;;;7.65;79.68
78407;BME280;67692;51.074;-1.790;2023-04-24T07:19:13;100414.84;;;7.68;79.69
78407;BME280;67692;51.074;-1.790;2023-04-24T07:21:40;100415.47;;;7.72;80.27
78407;BME280;67692;51.074;-1.790;2023-04-24T07:24:08;100417.66;;;7.78;80.10
78407;BME280;67692;51.074;-1.790;2023-04-24T07:26:36;100408.00;;;7.82;79.76
78407;BME280;67692;51.074;-1.790;2023-04-24T07:29:04;100412.75;;;7.88;79.68
78407;BME280;67692;51.074;-1.790;2023-04-24T07:31:31;100418.28;;;7.96;78.80
78407;BME280;67692;51.074;-1.790;2023-04-24T07:33:57;100416.88;;;8.04;78.43
78407;BME280;67692;51.074;-1.790;2023-04-24T07:36:24;100417.75;;;8.18;78.83
78407;BME280;67692;51.074;-1.790;2023-04-24T07:38:51;100421.09;;;8.32;77.67
78407;BME280;67692;51.074;-1.790;2023-04-24T07:41:19;100427.06;;;8.47;75.70
78407;BME280;67692;51.074;-1.790;2023-04-24T07:43:46;100423.81;;;8.58;76.40
78407;BME280;67692;51.074;-1.790;2023-04-24T07:46:13;100426.09;;;8.75;74.18
78407;BME280;67692;51.074;-1.790;2023-04-24T07:48:39;100420.63;;;8.80;75.71
78407;BME280;67692;51.074;-1.790;2023-04-24T07:51:06;100424.38;;;8.88;76.72
78407;BME280;67692;51.074;-1.790;2023-04-24T07:53:35;100426.44;;;8.96;77.47
78407;BME280;67692;51.074;-1.790;2023-04-24T07:56:02;100429.97;;;9.08;77.60
78407;BME280;67692;51.074;-1.790;2023-04-24T07:58:30;100424.19;;;9.17;75.49
78407;BME280;67692;51.074;-1.790;2023-04-24T08:00:56;100425.22;;;9.27;74.23
78407;BME280;67692;51.074;-1.790;2023-04-24T08:03:23;100426.44;;;9.34;75.81
78407;BME280;67692;51.074;-1.790;2023-04-24T08:05:50;100425.19;;;9.40;76.36
78407;BME280;67692;51.074;-1.790;2023-04-24T08:08:17;100430.38;;;9.40;74.94
78407;BME280;67692;51.074;-1.790;2023-04-24T08:10:44;100437.00;;;9.44;75.96
78407;BME280;67692;51.074;-1.790;2023-04-24T08:13:10;100430.47;;;9.51;74.16
78407;BME280;67692;51.074;-1.790;2023-04-24T08:15:39;100427.47;;;9.57;75.93
78407;BME280;67692;51.074;-1.790;2023-04-24T08:18:05;100427.88;;;9.64;72.83
78407;BME280;67692;51.074;-1.790;2023-04-24T08:20:32;100426.72;;;9.68;72.96
78407;BME280;67692;51.074;-1.790;2023-04-24T08:22:59;100429.72;;;9.74;72.88
78407;BME280;67692;51.074;-1.790;2023-04-24T08:25:25;100429.50;;;9.77;74.87
78407;BME280;67692;51.074;-1.790;2023-04-24T08:27:52;100423.88;;;9.83;72.60
78407;BME280;67692;51.074;-1.790;2023-04-24T08:30:19;100432.66;;;9.94;73.55
78407;BME280;67692;51.074;-1.790;2023-04-24T08:32:47;100435.75;;;9.99;74.46
78407;BME280;67692;51.074;-1.790;2023-04-24T08:35:14;100434.38;;;10.06;75.07
78407;BME280;67692;51.074;-1.790;2023-04-24T08:37:41;100438.63;;;10.07;75.88
78407;BME280;67692;51.074;-1.790;2023-04-24T08:40:12;100445.22;;;10.11;75.43
78407;BME280;67692;51.074;-1.790;2023-04-24T08:42:41;100445.09;;;10.12;76.09
78407;BME280;67692;51.074;-1.790;2023-04-24T08:45:09;100443.38;;;10.13;76.52
78407;BME280;67692;51.074;-1.790;2023-04-24T08:47:37;100442.22;;;10.17;75.59
78407;BME280;67692;51.074;-1.790;2023-04-24T08:50:07;100443.16;;;10.16;75.97
78407;BME280;67692;51.074;-1.790;2023-04-24T08:52:34;100444.09;;;10.15;75.80
78407;BME280;67692;51.074;-1.790;2023-04-24T08:55:01;100435.50;;;10.14;75.79
78407;BME280;67692;51.074;-1.790;2023-04-24T08:57:28;100430.44;;;10.13;75.69
78407;BME280;67692;51.074;-1.790;2023-04-24T08:59:56;100435.28;;;10.18;76.07
78407;BME280;67692;51.074;-1.790;2023-04-24T09:02:24;100436.22;;;10.17;76.85
78407;BME280;67692;51.074;-1.790;2023-04-24T09:04:52;100429.78;;;10.22;75.76
78407;BME280;67692;51.074;-1.790;2023-04-24T09:07:22;100427.22;;;10.22;74.98
78407;BME280;67692;51.074;-1.790;2023-04-24T09:09:51;100423.25;;;10.29;75.40
78407;BME280;67692;51.074;-1.790;2023-04-24T09:12:18;100431.50;;;10.34;73.72
78407;BME280;67692;51.074;-1.790;2023-04-24T09:14:45;100431.16;;;10.39;74.88
78407;BME280;67692;51.074;-1.790;2023-04-24T09:17:12;100430.28;;;10.51;72.47
78407;BME280;67692;51.074;-1.790;2023-04-24T09:19:40;100435.13;;;10.56;73.43
78407;BME280;67692;51.074;-1.790;2023-04-24T09:22:07;100437.28;;;10.62;70.59
78407;BME280;67692;51.074;-1.790;2023-04-24T09:24:35;100435.63;;;10.61;73.06
78407;BME280;67692;51.074;-1.790;2023-04-24T09:27:02;100442.00;;;10.68;71.40
78407;BME280;67692;51.074;-1.790;2023-04-24T09:29:30;100439.22;;;10.82;72.00
78407;BME280;67692;51.074;-1.790;2023-04-24T09:31:58;100439.44;;;10.79;70.82
78407;BME280;67692;51.074;-1.790;2023-04-24T09:34:26;100431.84;;;10.89;69.29
78407;BME280;67692;51.074;-1.790;2023-04-24T09:36:53;100435.25;;;10.89;69.37
78407;BME280;67692;51.074;-1.790;2023-04-24T09:39:20;100432.91;;;10.97;68.83
78407;BME280;67692;51.074;-1.790;2023-04-24T09:41:50;100438.31;;;10.94;68.43
78407;BME280;67692;51.074;-1.790;2023-04-24T09:44:18;100440.53;;;10.99;69.48
78407;BME280;67692;51.074;-1.790;2023-04-24T09:46:50;100448.94;;;11.02;68.84
78407;BME280;67692;51.074;-1.790;2023-04-24T09:49:22;100446.59;;;11.11;69.15
78407;BME280;67692;51.074;-1.790;2023-04-24T09:51:49;100452.03;;;11.19;68.23
78407;BME280;67692;51.074;-1.790;2023-04-24T09:54:17;100445.53;;;11.24;67.19
78407;BME280;67692;51.074;-1.790;2023-04-24T09:56:46;100444.00;;;11.11;64.41
78407;BME280;67692;51.074;-1.790;2023-04-24T09:59:15;100446.97;;;11.17;66.39
78407;BME280;67692;51.074;-1.790;2023-04-24T10:01:42;100444.00;;;11.11;65.39
78407;BME280;67692;51.074;-1.790;2023-04-24T10:04:16;100439.75;;;11.10;65.34
78407;BME280;67692;51.074;-1.790;2023-04-24T10:06:43;100440.97;;;11.17;65.45
78407;BME280;67692;51.074;-1.790;2023-04-24T10:09:10;100437.41;;;11.07;64.93
78407;BME280;67692;51.074;-1.790;2023-04-24T10:11:41;100443.16;;;11.10;64.44
78407;BME280;67692;51.074;-1.790;2023-04-24T10:14:09;100440.34;;;11.02;65.49
78407;BME280;67692;51.074;-1.790;2023-04-24T10:16:39;100443.06;;;11.23;64.98
78407;BME280;67692;51.074;-1.790;2023-04-24T10:19:07;100439.63;;;11.11;64.77
78407;BME280;67692;51.074;-1.790;2023-04-24T10:21:34;100443.06;;;11.12;66.50
78407;BME280;67692;51.074;-1.790;2023-04-24T10:24:01;100440.00;;;11.18;66.30
78407;BME280;67692;51.074;-1.790;2023-04-24T10:26:30;100438.72;;;11.23;67.30
78407;BME280;67692;51.074;-1.790;2023-04-24T10:28:57;100433.91;;;11.30;66.00
78407;BME280;67692;51.074;-1.790;2023-04-24T10:31:25;100442.38;;;11.21;65.99
78407;BME280;67692;51.074;-1.790;2023-04-24T10:33:54;100440.38;;;11.24;67.38
78407;BME280;67692;51.074;-1.790;2023-04-24T10:36:22;100444.41;;;11.28;67.52
78407;BME280;67692;51.074;-1.790;2023-04-24T10:38:52;100443.53;;;11.28;66.88
78407;BME280;67692;51.074;-1.790;2023-04-24T10:41:20;100447.31;;;11.24;68.71
78407;BME280;67692;51.074;-1.790;2023-04-24T10:43:48;100446.59;;;11.22;68.75
78407;BME280;67692;51.074;-1.790;2023-04-24T10:46:19;100440.59;;;11.21;68.98
78407;BME280;67692;51.074;-1.790;2023-04-24T10:48:54;100436.00;;;11.25;67.87
78407;BME280;67692;51.074;-1.790;2023-04-24T10:51:22;100435.75;;;11.28;68.37
78407;BME280;67692;51.074;-1.790;2023-04-24T10:53:49;100441.81;;;11.28;70.88
78407;BME280;67692;51.074;-1.790;2023-04-24T10:56:17;100433.66;;;11.22;73.44
78407;BME280;67692;51.074;-1.790;2023-04-24T10:58:44;100433.19;;;11.17;71.52
78407;BME280;67692;51.074;-1.790;2023-04-24T11:01:24;100429.75;;;11.05;73.53
78407;BME280;67692;51.074;-1.790;2023-04-24T11:03:56;100426.19;;;10.95;73.70
78407;BME280;67692;51.074;-1.790;2023-04-24T11:06:28;100419.25;;;11.07;73.90
78407;BME280;67692;51.074;-1.790;2023-04-24T11:09:02;100424.31;;;11.08;74.11
78407;BME280;67692;51.074;-1.790;2023-04-24T11:11:29;100426.69;;;11.22;77.17
78407;BME280;67692;51.074;-1.790;2023-04-24T11:14:04;100423.19;;;11.35;75.89
78407;BME280;67692;51.074;-1.790;2023-04-24T11:16:33;100414.81;;;11.42;74.20
78407;BME280;67692;51.074;-1.790;2023-04-24T11:19:03;100413.03;;;11.43;73.61
78407;BME280;67692;51.074;-1.790;2023-04-24T11:21:39;100419.28;;;11.40;73.25
78407;BME280;67692;51.074;-1.790;2023-04-24T11:24:27;100417.41;;;11.42;73.94
78407;BME280;67692;51.074;-1.790;2023-04-24T11:26:57;100427.75;;;11.42;74.24
78407;BME280;67692;51.074;-1.790;2023-04-24T11:29:38;100416.94;;;11.37;74.89
78407;BME280;67692;51.074;-1.790;2023-04-24T11:32:18;100417.63;;;11.17;72.91
78407;BME280;67692;51.074;-1.790;2023-04-24T11:34:48;100414.53;;;10.89;72.95
78407;BME280;67692;51.074;-1.790;2023-04-24T11:37:15;100424.75;;;10.91;75.42
78407;BME280;67692;51.074;-1.790;2023-04-24T11:39:42;100432.16;;;10.84;79.40
78407;BME280;67692;51.074;-1.790;2023-04-24T11:42:09;100456.88;;;10.77;81.03
78407;BME280;67692;51.074;-1.790;2023-04-24T11:44:36;100453.06;;;10.70;82.08
78407;BME280;67692;51.074;-1.790;2023-04-24T11:47:04;100457.06;;;10.63;81.25
78407;BME280;67692;51.074;-1.790;2023-04-24T11:49:30;100463.81;;;10.53;81.61
78407;BME280;67692;51.074;-1.790;2023-04-24T11:51:59;100458.78;;;10.27;79.11
78407;BME280;67692;51.074;-1.790;2023-04-24T11:54:26;100452.16;;;10.23;79.35
78407;BME280;67692;51.074;-1.790;2023-04-24T11:56:52;100450.50;;;10.09;79.91
78407;BME280;67692;51.074;-1.790;2023-04-24T11:59:19;100438.28;;;9.88;79.53
78407;BME280;67692;51.074;-1.790;2023-04-24T12:01:46;100441.72;;;9.75;78.23
78407;BME280;67692;51.074;-1.790;2023-04-24T12:04:14;100436.66;;;9.74;79.60
78407;BME280;67692;51.074;-1.790;2023-04-24T12:07:00;100425.59;;;9.72;78.10
78407;BME280;67692;51.074;-1.790;2023-04-24T12:09:27;100426.41;;;9.72;79.42
78407;BME280;67692;51.074;-1.790;2023-04-24T12:11:53;100428.28;;;9.70;79.46
78407;BME280;67692;51.074;-1.790;2023-04-24T12:14:22;100422.88;;;9.73;81.35
78407;BME280;67692;51.074;-1.790;2023-04-24T12:16:49;100425.47;;;9.73;79.67
78407;BME280;67692;51.074;-1.790;2023-04-24T12:19:18;100432.09;;;9.77;78.87
78407;BME280;67692;51.074;-1.790;2023-04-24T12:22:00;100435.72;;;9.75;78.38
78407;BME280;67692;51.074;-1.790;2023-04-24T12:24:27;100438.91;;;9.78;79.69
78407;BME280;67692;51.074;-1.790;2023-04-24T12:26:54;100438.56;;;9.83;82.58
78407;BME280;67692;51.074;-1.790;2023-04-24T12:29:21;100443.97;;;9.80;82.25
78407;BME280;67692;51.074;-1.790;2023-04-24T12:31:49;100441.59;;;9.77;80.66
78407;BME280;67692;51.074;-1.790;2023-04-24T12:34:18;100447.94;;;9.73;78.42
78407;BME280;67692;51.074;-1.790;2023-04-24T12:36:45;100439.13;;;9.75;76.93
78407;BME280;67692;51.074;-1.790;2023-04-24T12:39:15;100438.63;;;9.70;78.57
78407;BME280;67692;51.074;-1.790;2023-04-24T12:41:50;100430.56;;;9.62;78.93
78407;BME280;67692;51.074;-1.790;2023-04-24T12:44:17;100438.81;;;9.67;79.89
78407;BME280;67692;51.074;-1.790;2023-04-24T12:46:44;100432.81;;;9.67;78.99
78407;BME280;67692;51.074;-1.790;2023-04-24T12:49:10;100428.47;;;9.67;78.16